sensor_id;sensor_type;location;lat;lon;timestamp;temperature;humidity
11188;DHT22;5650;52.700;7.306;2024-01-15T00:00:14;4.60;99.90
11188;DHT22;5650;52.700;7.306;2024-01-15T00:02:42;4.60;99.90
11188;DHT22;5650;52.700;7.306;2024-01-15T00:05:11;4.60;99.90
11188;DHT22;5650;52.700;7.306;2024-01-15T00:07:38;4.70;99.90
11188;DHT22;5650;52.700;7.306;2024-01-15T00:10:06;4.80;99.90
11188;DHT22;5650;52.700;7.306;2024-01-15T00:12:33;4.80;99.90
11188;DHT22;5650;52.700;7.306;2024-01-15T00:15:00;4.70;99.90
11188;DHT22;5650;52.700;7.306;2024-01-15T00:17:29;4.70;99.90
11188;DHT22;5650;52.700;7.306;2024-01-15T00:19:56;4.70;99.90
11188;DHT22;5650;52.700;7.306;2024-01-15T00:22:25;4.70;99.90
11188;DHT22;5650;52.700;7.306;2024-01-15T00:24:55;4.50;99.90
11188;DHT22;5650;52.700;7.306;2024-01-15T00:27:25;4.40;99.90
11188;DHT22;5650;52.700;7.306;2024-01-15T00:29:56;4.40;99.90
11188;DHT22;5650;52.700;7.306;2024-01-15T00:32:25;4.40;99.90
11188;DHT22;5650;52.700;7.306;2024-01-15T00:34:54;4.50;99.90
11188;DHT22;5650;52.700;7.306;2024-01-15T00:37:24;4.50;99.90
11188;DHT22;5650;52.700;7.306;2024-01-15T00:39:54;4.50;99.90
11188;DHT22;5650;52.700;7.306;2024-01-15T00:42:21;4.60;99.90
11188;DHT22;5650;52.700;7.306;2024-01-15T00:44:49;4.60;99.90
11188;DHT22;5650;52.700;7.306;2024-01-15T00:47:20;4.60;99.90
11188;DHT22;5650;52.700;7.306;2024-01-15T00:49:50;4.50;99.90
11188;DHT22;5650;52.700;7.306;2024-01-15T00:52:19;4.60;99.90
11188;DHT22;5650;52.700;7.306;2024-01-15T00:54:45;4.50;99.90
11188;DHT22;5650;52.700;7.306;2024-01-15T00:57:15;4.50;99.90
11188;DHT22;5650;52.700;7.306;2024-01-15T00:59:47;4.40;99.90
11188;DHT22;5650;52.700;7.306;2024-01-15T01:02:15;4.60;99.90
11188;DHT22;5650;52.700;7.306;2024-01-15T01:04:44;4.50;99.90
11188;DHT22;5650;52.700;7.306;2024-01-15T01:07:11;4.80;99.90
11188;DHT22;5650;52.700;7.306;2024-01-15T01:09:40;4.80;99.90
11188;DHT22;5650;52.700;7.306;2024-01-15T01:12:07;4.80;99.90
11188;DHT22;5650;52.700;7.306;2024-01-15T01:14:34;4.90;99.90
11188;DHT22;5650;52.700;7.306;2024-01-15T01:17:02;5.00;99.90
11188;DHT22;5650;52.700;7.306;2024-01-15T01:19:29;5.00;99.90
11188;DHT22;5650;52.700;7.306;2024-01-15T01:21:56;5.10;99.90
11188;DHT22;5650;52.700;7.306;2024-01-15T01:24:25;5.00;99.90
11188;DHT22;5650;52.700;7.306;2024-01-15T01:26:54;5.20;99.90
11188;DHT22;5650;52.700;7.306;2024-01-15T01:29:21;5.20;99.90
11188;DHT22;5650;52.700;7.306;2024-01-15T01:31:52;5.20;99.90
11188;DHT22;5650;52.700;7.306;2024-01-15T01:34:21;5.30;99.90
11188;DHT22;5650;52.700;7.306;2024-01-15T01:36:57;5.40;99.90
11188;DHT22;5650;52.700;7.306;2024-01-15T01:39:30;5.40;99.90
11188;DHT22;5650;52.700;7.306;2024-01-15T01:41:58;5.40;99.90
11188;DHT22;5650;52.700;7.306;2024-01-15T01:44:25;5.50;99.90
11188;DHT22;5650;52.700;7.306;2024-01-15T01:47:01;5.50;99.90
11188;DHT22;5650;52.700;7.306;2024-01-15T01:49:29;5.40;99.90
11188;DHT22;5650;52.700;7.306;2024-01-15T01:51:58;5.40;99.90
11188;DHT22;5650;52.700;7.306;2024-01-15T01:54:28;5.20;99.90
11188;DHT22;5650;52.700;7.306;2024-01-15T01:57:03;5.20;99.90
11188;DHT22;5650;52.700;7.306;2024-01-15T01:59:30;5.20;99.90
11188;DHT22;5650;52.700;7.306;2024-01-15T02:02:00;5.20;99.90
11188;DHT22;5650;52.700;7.306;2024-01-15T02:04:30;5.10;99.90
11188;DHT22;5650;52.700;7.306;2024-01-15T02:06:59;5.10;99.90
11188;DHT22;5650;52.700;7.306;2024-01-15T02:09:26;4.90;99.90
11188;DHT22;5650;52.700;7.306;2024-01-15T02:11:53;4.80;99.90
11188;DHT22;5650;52.700;7.306;2024-01-15T02:14:25;4.70;99.90
11188;DHT22;5650;52.700;7.306;2024-01-15T02:16:52;4.50;99.90
11188;DHT22;5650;52.700;7.306;2024-01-15T02:19:26;4.50;99.90
11188;DHT22;5650;52.700;7.306;2024-01-15T02:21:53;4.30;99.90
11188;DHT22;5650;52.700;7.306;2024-01-15T02:24:25;4.30;99.90
11188;DHT22;5650;52.700;7.306;2024-01-15T02:26:55;4.20;99.90
11188;DHT22;5650;52.700;7.306;2024-01-15T02:29:26;4.20;99.90
11188;DHT22;5650;52.700;7.306;2024-01-15T02:32:04;4.20;99.90
11188;DHT22;5650;52.700;7.306;2024-01-15T02:34:31;4.20;99.90
11188;DHT22;5650;52.700;7.306;2024-01-15T02:36:59;4.10;99.90
11188;DHT22;5650;52.700;7.306;2024-01-15T02:39:28;4.10;99.90
11188;DHT22;5650;52.700;7.306;2024-01-15T02:41:55;4.10;99.90
11188;DHT22;5650;52.700;7.306;2024-01-15T02:44:26;4.10;99.90
11188;DHT22;5650;52.700;7.306;2024-01-15T02:46:59;4.10;99.90
11188;DHT22;5650;52.700;7.306;2024-01-15T02:49:26;4.00;99.90
11188;DHT22;5650;52.700;7.306;2024-01-15T02:51:57;4.10;99.90
11188;DHT22;5650;52.700;7.306;2024-01-15T02:54:24;4.20;99.90
11188;DHT22;5650;52.700;7.306;2024-01-15T02:56:53;4.20;99.90
11188;DHT22;5650;52.700;7.306;2024-01-15T02:59:23;4.20;99.90
11188;DHT22;5650;52.700;7.306;2024-01-15T03:01:50;4.10;99.90
11188;DHT22;5650;52.700;7.306;2024-01-15T03:04:21;4.10;99.90
11188;DHT22;5650;52.700;7.306;2024-01-15T03:06:48;4.10;99.90
11188;DHT22;5650;52.700;7.306;2024-01-15T03:09:15;4.20;99.90
11188;DHT22;5650;52.700;7.306;2024-01-15T03:11:42;4.20;99.90
11188;DHT22;5650;52.700;7.306;2024-01-15T03:14:11;4.20;99.90
11188;DHT22;5650;52.700;7.306;2024-01-15T03:16:41;4.30;99.90
11188;DHT22;5650;52.700;7.306;2024-01-15T03:19:16;4.30;99.90
11188;DHT22;5650;52.700;7.306;2024-01-15T03:21:43;4.20;99.90
11188;DHT22;5650;52.700;7.306;2024-01-15T03:24:16;4.00;99.90
11188;DHT22;5650;52.700;7.306;2024-01-15T03:26:50;4.10;99.90
11188;DHT22;5650;52.700;7.306;2024-01-15T03:29:18;4.00;99.90
11188;DHT22;5650;52.700;7.306;2024-01-15T03:31:52;4.00;99.90
11188;DHT22;5650;52.700;7.306;2024-01-15T03:34:25;4.00;99.90
11188;DHT22;5650;52.700;7.306;2024-01-15T03:36:55;4.00;99.90
11188;DHT22;5650;52.700;7.306;2024-01-15T03:39:27;3.90;99.90
11188;DHT22;5650;52.700;7.306;2024-01-15T03:41:54;4.00;99.90
11188;DHT22;5650;52.700;7.306;2024-01-15T03:44:23;4.00;99.90
11188;DHT22;5650;52.700;7.306;2024-01-15T03:46:53;4.10;99.90
11188;DHT22;5650;52.700;7.306;2024-01-15T03:49:23;4.10;99.90
11188;DHT22;5650;52.700;7.306;2024-01-15T03:51:50;4.20;99.90
11188;DHT22;5650;52.700;7.306;2024-01-15T03:54:21;4.20;99.90
11188;DHT22;5650;52.700;7.306;2024-01-15T03:56:48;4.30;99.90
11188;DHT22;5650;52.700;7.306;2024-01-15T03:59:15;4.30;99.90
11188;DHT22;5650;52.700;7.306;2024-01-15T04:01:50;4.30;99.90
11188;DHT22;5650;52.700;7.306;2024-01-15T04:04:17;4.40;99.90
11188;DHT22;5650;52.700;7.306;2024-01-15T04:06:48;4.30;99.90
11188;DHT22;5650;52.700;7.306;2024-01-15T04:09:16;4.30;99.90
11188;DHT22;5650;52.700;7.306;2024-01-15T04:11:43;4.30;99.90
11188;DHT22;5650;52.700;7.306;2024-01-15T04:14:10;4.20;99.90
11188;DHT22;5650;52.700;7.306;2024-01-15T04:16:45;4.20;99.90
11188;DHT22;5650;52.700;7.306;2024-01-15T04:19:13;4.30;99.90
11188;DHT22;5650;52.700;7.306;2024-01-15T04:21:44;4.40;99.90
11188;DHT22;5650;52.700;7.306;2024-01-15T04:24:11;4.40;99.90
11188;DHT22;5650;52.700;7.306;2024-01-15T04:26:45;4.40;99.90
11188;DHT22;5650;52.700;7.306;2024-01-15T04:29:15;4.40;99.90
11188;DHT22;5650;52.700;7.306;2024-01-15T04:31:45;4.50;99.90
11188;DHT22;5650;52.700;7.306;2024-01-15T04:34:14;4.50;99.90
11188;DHT22;5650;52.700;7.306;2024-01-15T04:36:43;4.50;99.90
11188;DHT22;5650;52.700;7.306;2024-01-15T04:39:11;4.50;99.90
11188;DHT22;5650;52.700;7.306;2024-01-15T04:41:41;4.40;99.90
11188;DHT22;5650;52.700;7.306;2024-01-15T04:44:08;4.40;99.90
11188;DHT22;5650;52.700;7.306;2024-01-15T04:46:35;4.40;99.90
11188;DHT22;5650;52.700;7.306;2024-01-15T04:49:02;4.30;99.90
11188;DHT22;5650;52.700;7.306;2024-01-15T04:51:31;4.30;99.90
11188;DHT22;5650;52.700;7.306;2024-01-15T04:53:58;4.40;99.90
11188;DHT22;5650;52.700;7.306;2024-01-15T04:56:28;4.40;99.90
11188;DHT22;5650;52.700;7.306;2024-01-15T04:58:56;4.30;99.90
11188;DHT22;5650;52.700;7.306;2024-01-15T05:01:23;4.30;99.90
11188;DHT22;5650;52.700;7.306;2024-01-15T05:03:50;4.30;99.90
11188;DHT22;5650;52.700;7.306;2024-01-15T05:06:17;4.40;99.90
11188;DHT22;5650;52.700;7.306;2024-01-15T05:08:46;4.50;99.90
11188;DHT22;5650;52.700;7.306;2024-01-15T05:11:13;4.40;99.90
11188;DHT22;5650;52.700;7.306;2024-01-15T05:13:41;4.40;99.90
11188;DHT22;5650;52.700;7.306;2024-01-15T05:16:08;4.40;99.90
11188;DHT22;5650;52.700;7.306;2024-01-15T05:18:39;4.40;99.90
11188;DHT22;5650;52.700;7.306;2024-01-15T05:21:06;4.50;99.90
11188;DHT22;5650;52.700;7.306;2024-01-15T05:23:34;4.40;99.90
11188;DHT22;5650;52.700;7.306;2024-01-15T05:26:03;4.50;99.90
11188;DHT22;5650;52.700;7.306;2024-01-15T05:28:31;4.50;99.90
11188;DHT22;5650;52.700;7.306;2024-01-15T05:30:58;4.40;99.90
11188;DHT22;5650;52.700;7.306;2024-01-15T05:33:25;4.40;99.90
11188;DHT22;5650;52.700;7.306;2024-01-15T05:35:52;4.50;99.90
11188;DHT22;5650;52.700;7.306;2024-01-15T05:38:20;4.50;99.90
11188;DHT22;5650;52.700;7.306;2024-01-15T05:40:47;4.60;99.90
11188;DHT22;5650;52.700;7.306;2024-01-15T05:43:16;4.40;99.90
11188;DHT22;5650;52.700;7.306;2024-01-15T05:45:43;4.80;99.90
11188;DHT22;5650;52.700;7.306;2024-01-15T05:48:11;4.80;99.90
11188;DHT22;5650;52.700;7.306;2024-01-15T05:50:38;4.80;99.90
11188;DHT22;5650;52.700;7.306;2024-01-15T05:53:06;4.80;99.90
11188;DHT22;5650;52.700;7.306;2024-01-15T05:55:35;4.60;99.90
11188;DHT22;5650;52.700;7.306;2024-01-15T05:58:03;4.30;99.90
11188;DHT22;5650;52.700;7.306;2024-01-15T06:00:32;4.30;99.90
11188;DHT22;5650;52.700;7.306;2024-01-15T06:03:01;4.30;99.90
11188;DHT22;5650;52.700;7.306;2024-01-15T06:05:28;4.20;99.90
11188;DHT22;5650;52.700;7.306;2024-01-15T06:07:55;4.20;99.90
11188;DHT22;5650;52.700;7.306;2024-01-15T06:10:23;4.20;99.90
11188;DHT22;5650;52.700;7.306;2024-01-15T06:12:50;4.20;99.90
11188;DHT22;5650;52.700;7.306;2024-01-15T06:15:17;4.10;99.90
11188;DHT22;5650;52.700;7.306;2024-01-15T06:17:46;4.00;99.90
11188;DHT22;5650;52.700;7.306;2024-01-15T06:20:13;4.00;99.90
11188;DHT22;5650;52.700;7.306;2024-01-15T06:22:51;4.10;99.90
11188;DHT22;5650;52.700;7.306;2024-01-15T06:25:24;4.00;99.90
11188;DHT22;5650;52.700;7.306;2024-01-15T06:27:52;4.00;99.90
11188;DHT22;5650;52.700;7.306;2024-01-15T06:30:25;3.90;99.90
11188;DHT22;5650;52.700;7.306;2024-01-15T06:32:54;4.00;99.90
11188;DHT22;5650;52.700;7.306;2024-01-15T06:35:24;4.00;99.90
11188;DHT22;5650;52.700;7.306;2024-01-15T06:37:56;4.00;99.90
11188;DHT22;5650;52.700;7.306;2024-01-15T06:40:26;4.10;99.90
11188;DHT22;5650;52.700;7.306;2024-01-15T06:42:56;4.00;99.90
11188;DHT22;5650;52.700;7.306;2024-01-15T06:45:23;4.00;99.90
11188;DHT22;5650;52.700;7.306;2024-01-15T06:47:55;3.80;99.90
11188;DHT22;5650;52.700;7.306;2024-01-15T06:50:32;3.90;99.90
11188;DHT22;5650;52.700;7.306;2024-01-15T06:52:59;3.80;99.90
11188;DHT22;5650;52.700;7.306;2024-01-15T06:55:26;4.00;99.90
11188;DHT22;5650;52.700;7.306;2024-01-15T06:57:56;4.00;99.90
11188;DHT22;5650;52.700;7.306;2024-01-15T07:00:24;3.90;99.90
11188;DHT22;5650;52.700;7.306;2024-01-15T07:02:51;3.90;99.90
11188;DHT22;5650;52.700;7.306;2024-01-15T07:05:29;4.00;99.90
11188;DHT22;5650;52.700;7.306;2024-01-15T07:07:57;3.90;99.90
11188;DHT22;5650;52.700;7.306;2024-01-15T07:10:27;3.70;99.90
11188;DHT22;5650;52.700;7.306;2024-01-15T07:13:01;3.60;99.90
11188;DHT22;5650;52.700;7.306;2024-01-15T07:15:28;3.40;99.90
11188;DHT22;5650;52.700;7.306;2024-01-15T07:17:56;3.00;99.90
11188;DHT22;5650;52.700;7.306;2024-01-15T07:20:26;2.80;99.90
11188;DHT22;5650;52.700;7.306;2024-01-15T07:22:55;2.60;99.90
11188;DHT22;5650;52.700;7.306;2024-01-15T07:25:22;2.50;99.90
11188;DHT22;5650;52.700;7.306;2024-01-15T07:27:54;2.30;99.90
11188;DHT22;5650;52.700;7.306;2024-01-15T07:30:23;2.30;99.90
11188;DHT22;5650;52.700;7.306;2024-01-15T07:32:50;2.20;99.90
11188;DHT22;5650;52.700;7.306;2024-01-15T07:35:18;2.10;99.90
11188;DHT22;5650;52.700;7.306;2024-01-15T07:37:46;2.10;99.90
11188;DHT22;5650;52.700;7.306;2024-01-15T07:40:19;2.00;99.90
11188;DHT22;5650;52.700;7.306;2024-01-15T07:42:49;2.00;99.90
11188;DHT22;5650;52.700;7.306;2024-01-15T07:45:20;2.00;99.90
11188;DHT22;5650;52.700;7.306;2024-01-15T07:47:47;2.00;99.90
11188;DHT22;5650;52.700;7.306;2024-01-15T07:50:14;2.00;99.90
11188;DHT22;5650;52.700;7.306;2024-01-15T07:52:48;2.00;99.90
11188;DHT22;5650;52.700;7.306;2024-01-15T07:55:17;2.00;99.90
11188;DHT22;5650;52.700;7.306;2024-01-15T07:57:47;2.00;99.90
11188;DHT22;5650;52.700;7.306;2024-01-15T08:00:20;2.00;99.90
11188;DHT22;5650;52.700;7.306;2024-01-15T08:02:57;2.00;99.90
11188;DHT22;5650;52.700;7.306;2024-01-15T08:05:28;2.00;99.90
11188;DHT22;5650;52.700;7.306;2024-01-15T08:07:55;2.00;99.90
11188;DHT22;5650;52.700;7.306;2024-01-15T08:10:27;2.00;99.90
11188;DHT22;5650;52.700;7.306;2024-01-15T08:12:54;2.00;99.90
11188;DHT22;5650;52.700;7.306;2024-01-15T08:15:21;1.90;99.90
11188;DHT22;5650;52.700;7.306;2024-01-15T08:17:54;1.90;99.90
11188;DHT22;5650;52.700;7.306;2024-01-15T08:20:24;1.90;99.90
11188;DHT22;5650;52.700;7.306;2024-01-15T08:22:54;1.80;99.90
11188;DHT22;5650;52.700;7.306;2024-01-15T08:25:29;1.90;99.90
11188;DHT22;5650;52.700;7.306;2024-01-15T08:27:56;1.90;99.90
11188;DHT22;5650;52.700;7.306;2024-01-15T08:30:24;1.90;99.90
11188;DHT22;5650;52.700;7.306;2024-01-15T08:32:55;1.90;99.90
11188;DHT22;5650;52.700;7.306;2024-01-15T08:35:23;2.00;99.90
11188;DHT22;5650;52.700;7.306;2024-01-15T08:37:54;2.00;99.90
11188;DHT22;5650;52.700;7.306;2024-01-15T08:40:21;2.00;99.90
11188;DHT22;5650;52.700;7.306;2024-01-15T08:42:50;2.00;99.90
11188;DHT22;5650;52.700;7.306;2024-01-15T08:45:26;2.10;99.90
11188;DHT22;5650;52.700;7.306;2024-01-15T08:47:55;2.10;99.90
11188;DHT22;5650;52.700;7.306;2024-01-15T08:50:22;2.20;99.90
11188;DHT22;5650;52.700;7.306;2024-01-15T08:52:52;2.30;99.90
11188;DHT22;5650;52.700;7.306;2024-01-15T08:55:28;2.30;99.90
11188;DHT22;5650;52.700;7.306;2024-01-15T08:58:03;2.30;99.90
11188;DHT22;5650;52.700;7.306;2024-01-15T09:00:31;2.30;99.90
11188;DHT22;5650;52.700;7.306;2024-01-15T09:03:05;2.30;99.90
11188;DHT22;5650;52.700;7.306;2024-01-15T09:05:35;2.40;99.90
11188;DHT22;5650;52.700;7.306;2024-01-15T09:08:08;2.40;99.90
11188;DHT22;5650;52.700;7.306;2024-01-15T09:10:38;2.50;99.90
11188;DHT22;5650;52.700;7.306;2024-01-15T09:13:20;2.50;99.90
11188;DHT22;5650;52.700;7.306;2024-01-15T09:15:50;2.40;99.90
11188;DHT22;5650;52.700;7.306;2024-01-15T09:18:17;2.50;99.90
11188;DHT22;5650;52.700;7.306;2024-01-15T09:20:47;2.60;99.90
11188;DHT22;5650;52.700;7.306;2024-01-15T09:26:28;2.60;99.90
11188;DHT22;5650;52.700;7.306;2024-01-15T09:29:00;2.70;99.90
11188;DHT22;5650;52.700;7.306;2024-01-15T09:31:28;2.70;99.90
11188;DHT22;5650;52.700;7.306;2024-01-15T09:33:55;2.70;99.90
11188;DHT22;5650;52.700;7.306;2024-01-15T09:36:24;2.70;99.90
11188;DHT22;5650;52.700;7.306;2024-01-15T09:38:54;2.70;99.90
11188;DHT22;5650;52.700;7.306;2024-01-15T09:41:21;2.80;99.90
11188;DHT22;5650;52.700;7.306;2024-01-15T09:43:48;2.80;99.90
11188;DHT22;5650;52.700;7.306;2024-01-15T09:46:25;2.80;99.90
11188;DHT22;5650;52.700;7.306;2024-01-15T09:48:52;2.80;99.90
11188;DHT22;5650;52.700;7.306;2024-01-15T09:51:21;2.90;99.90
11188;DHT22;5650;52.700;7.306;2024-01-15T09:53:48;3.00;99.90
11188;DHT22;5650;52.700;7.306;2024-01-15T09:56:17;3.00;99.90
11188;DHT22;5650;52.700;7.306;2024-01-15T09:58:44;3.10;99.90
11188;DHT22;5650;52.700;7.306;2024-01-15T10:01:18;3.10;99.90
11188;DHT22;5650;52.700;7.306;2024-01-15T10:03:54;3.20;99.90
11188;DHT22;5650;52.700;7.306;2024-01-15T10:06:22;3.10;99.90
11188;DHT22;5650;52.700;7.306;2024-01-15T10:08:50;3.20;99.90
11188;DHT22;5650;52.700;7.306;2024-01-15T10:11:17;3.20;99.90
11188;DHT22;5650;52.700;7.306;2024-01-15T10:13:45;3.20;99.90
11188;DHT22;5650;52.700;7.306;2024-01-15T10:16:15;3.20;99.90
11188;DHT22;5650;52.700;7.306;2024-01-15T10:18:42;3.20;99.90
11188;DHT22;5650;52.700;7.306;2024-01-15T10:21:14;3.20;99.90
11188;DHT22;5650;52.700;7.306;2024-01-15T10:23:47;3.20;99.90
11188;DHT22;5650;52.700;7.306;2024-01-15T10:26:15;3.20;99.90
11188;DHT22;5650;52.700;7.306;2024-01-15T10:28:42;3.20;99.90
11188;DHT22;5650;52.700;7.306;2024-01-15T10:31:09;3.30;99.90
11188;DHT22;5650;52.700;7.306;2024-01-15T10:33:37;3.30;99.90
11188;DHT22;5650;52.700;7.306;2024-01-15T10:36:17;3.30;99.90
11188;DHT22;5650;52.700;7.306;2024-01-15T10:38:44;3.40;99.90
11188;DHT22;5650;52.700;7.306;2024-01-15T10:41:12;3.40;99.90
11188;DHT22;5650;52.700;7.306;2024-01-15T10:43:39;3.40;99.90
11188;DHT22;5650;52.700;7.306;2024-01-15T10:46:10;3.50;99.90
11188;DHT22;5650;52.700;7.306;2024-01-15T10:48:41;3.50;99.90
11188;DHT22;5650;52.700;7.306;2024-01-15T10:51:08;3.50;99.90
11188;DHT22;5650;52.700;7.306;2024-01-15T10:53:39;3.50;99.90
11188;DHT22;5650;52.700;7.306;2024-01-15T10:56:10;3.60;99.90
11188;DHT22;5650;52.700;7.306;2024-01-15T10:58:42;3.50;99.90
11188;DHT22;5650;52.700;7.306;2024-01-15T11:01:13;3.50;99.90
11188;DHT22;5650;52.700;7.306;2024-01-15T11:03:40;3.40;99.90
11188;DHT22;5650;52.700;7.306;2024-01-15T11:06:16;3.40;99.90
11188;DHT22;5650;52.700;7.306;2024-01-15T11:08:48;3.30;99.90
11188;DHT22;5650;52.700;7.306;2024-01-15T11:11:17;3.40;99.90
11188;DHT22;5650;52.700;7.306;2024-01-15T11:16:57;3.50;99.90
11188;DHT22;5650;52.700;7.306;2024-01-15T11:19:36;3.50;99.90
11188;DHT22;5650;52.700;7.306;2024-01-15T11:22:07;3.60;99.90
11188;DHT22;5650;52.700;7.306;2024-01-15T11:24:40;3.70;99.90
11188;DHT22;5650;52.700;7.306;2024-01-15T11:27:08;3.70;99.90
11188;DHT22;5650;52.700;7.306;2024-01-15T11:29:36;3.80;99.90
11188;DHT22;5650;52.700;7.306;2024-01-15T11:32:05;3.80;99.90
11188;DHT22;5650;52.700;7.306;2024-01-15T11:34:53;3.80;99.90
11188;DHT22;5650;52.700;7.306;2024-01-15T11:37:56;3.90;99.90
11188;DHT22;5650;52.700;7.306;2024-01-15T11:40:38;4.00;99.90
11188;DHT22;5650;52.700;7.306;2024-01-15T11:43:08;4.00;99.90
11188;DHT22;5650;52.700;7.306;2024-01-15T11:45:36;3.90;99.90
11188;DHT22;5650;52.700;7.306;2024-01-15T11:48:14;3.80;99.90
11188;DHT22;5650;52.700;7.306;2024-01-15T11:50:43;3.60;99.90
11188;DHT22;5650;52.700;7.306;2024-01-15T11:53:21;3.60;99.90
11188;DHT22;5650;52.700;7.306;2024-01-15T11:55:51;3.50;99.90
11188;DHT22;5650;52.700;7.306;2024-01-15T11:58:19;3.50;99.90
11188;DHT22;5650;52.700;7.306;2024-01-15T12:00:48;3.50;99.90
11188;DHT22;5650;52.700;7.306;2024-01-15T12:03:17;3.50;99.90
11188;DHT22;5650;52.700;7.306;2024-01-15T12:05:44;3.50;99.90
11188;DHT22;5650;52.700;7.306;2024-01-15T12:08:11;3.40;99.90
11188;DHT22;5650;52.700;7.306;2024-01-15T12:10:39;3.30;99.90
11188;DHT22;5650;52.700;7.306;2024-01-15T12:13:10;3.20;99.90
11188;DHT22;5650;52.700;7.306;2024-01-15T12:15:38;3.30;99.90
11188;DHT22;5650;52.700;7.306;2024-01-15T12:18:08;3.30;99.90
11188;DHT22;5650;52.700;7.306;2024-01-15T12:20:35;3.40;99.90
11188;DHT22;5650;52.700;7.306;2024-01-15T12:23:05;3.50;99.90
11188;DHT22;5650;52.700;7.306;2024-01-15T12:25:33;3.70;99.90
11188;DHT22;5650;52.700;7.306;2024-01-15T12:28:01;3.70;99.90
11188;DHT22;5650;52.700;7.306;2024-01-15T12:30:30;3.70;99.90
11188;DHT22;5650;52.700;7.306;2024-01-15T12:32:58;3.70;99.90
11188;DHT22;5650;52.700;7.306;2024-01-15T12:35:28;3.80;99.90
11188;DHT22;5650;52.700;7.306;2024-01-15T12:37:55;3.90;99.90
11188;DHT22;5650;52.700;7.306;2024-01-15T12:40:23;3.90;99.90
11188;DHT22;5650;52.700;7.306;2024-01-15T12:42:51;3.90;99.90
11188;DHT22;5650;52.700;7.306;2024-01-15T12:45:18;3.90;99.90
11188;DHT22;5650;52.700;7.306;2024-01-15T12:47:47;3.90;99.90
11188;DHT22;5650;52.700;7.306;2024-01-15T12:50:16;3.90;99.90
11188;DHT22;5650;52.700;7.306;2024-01-15T12:52:43;3.90;99.90
11188;DHT22;5650;52.700;7.306;2024-01-15T12:55:10;3.90;99.90
11188;DHT22;5650;52.700;7.306;2024-01-15T12:57:38;3.90;99.90
11188;DHT22;5650;52.700;7.306;2024-01-15T13:00:06;3.80;99.90
11188;DHT22;5650;52.700;7.306;2024-01-15T13:02:38;3.70;99.90
11188;DHT22;5650;52.700;7.306;2024-01-15T13:05:09;3.60;99.90
11188;DHT22;5650;52.700;7.306;2024-01-15T13:07:37;3.50;99.90
11188;DHT22;5650;52.700;7.306;2024-01-15T13:10:05;3.40;99.90
11188;DHT22;5650;52.700;7.306;2024-01-15T13:12:33;3.40;99.90
11188;DHT22;5650;52.700;7.306;2024-01-15T13:15:00;3.30;99.90
11188;DHT22;5650;52.700;7.306;2024-01-15T13:17:29;3.20;99.90
11188;DHT22;5650;52.700;7.306;2024-01-15T13:19:57;3.10;99.90
11188;DHT22;5650;52.700;7.306;2024-01-15T13:22:25;3.00;99.90
11188;DHT22;5650;52.700;7.306;2024-01-15T13:24:57;3.00;99.90
11188;DHT22;5650;52.700;7.306;2024-01-15T13:27:24;3.00;99.90
11188;DHT22;5650;52.700;7.306;2024-01-15T13:29:52;3.00;99.90
11188;DHT22;5650;52.700;7.306;2024-01-15T13:32:25;3.00;99.90
11188;DHT22;5650;52.700;7.306;2024-01-15T13:34:53;3.00;99.90
11188;DHT22;5650;52.700;7.306;2024-01-15T13:37:21;3.00;99.90
11188;DHT22;5650;52.700;7.306;2024-01-15T13:39:51;3.00;99.90
11188;DHT22;5650;52.700;7.306;2024-01-15T13:42:19;3.00;99.90
11188;DHT22;5650;52.700;7.306;2024-01-15T13:44:47;3.00;99.90
11188;DHT22;5650;52.700;7.306;2024-01-15T13:47:14;3.00;99.90
11188;DHT22;5650;52.700;7.306;2024-01-15T13:49:42;3.00;99.90
11188;DHT22;5650;52.700;7.306;2024-01-15T13:52:09;3.00;99.90
11188;DHT22;5650;52.700;7.306;2024-01-15T13:54:36;3.00;99.90
11188;DHT22;5650;52.700;7.306;2024-01-15T13:57:05;3.00;99.90
11188;DHT22;5650;52.700;7.306;2024-01-15T13:59:33;2.90;99.90
11188;DHT22;5650;52.700;7.306;2024-01-15T14:02:00;2.90;99.90
11188;DHT22;5650;52.700;7.306;2024-01-15T14:04:28;3.00;99.90
11188;DHT22;5650;52.700;7.306;2024-01-15T14:06:57;3.10;99.90
11188;DHT22;5650;52.700;7.306;2024-01-15T14:09:24;3.10;99.90
11188;DHT22;5650;52.700;7.306;2024-01-15T14:11:51;3.10;99.90
11188;DHT22;5650;52.700;7.306;2024-01-15T14:14:20;3.10;99.90
11188;DHT22;5650;52.700;7.306;2024-01-15T14:16:47;3.10;99.90
11188;DHT22;5650;52.700;7.306;2024-01-15T14:19:14;3.10;99.90
11188;DHT22;5650;52.700;7.306;2024-01-15T14:21:42;3.10;99.90
11188;DHT22;5650;52.700;7.306;2024-01-15T14:24:09;3.30;99.90
11188;DHT22;5650;52.700;7.306;2024-01-15T14:26:36;3.30;99.90
11188;DHT22;5650;52.700;7.306;2024-01-15T14:29:03;3.30;99.90
11188;DHT22;5650;52.700;7.306;2024-01-15T14:31:33;3.10;99.90
11188;DHT22;5650;52.700;7.306;2024-01-15T14:34:00;3.20;99.90
11188;DHT22;5650;52.700;7.306;2024-01-15T14:36:28;3.10;99.90
11188;DHT22;5650;52.700;7.306;2024-01-15T14:38:55;3.10;99.90
11188;DHT22;5650;52.700;7.306;2024-01-15T14:41:23;3.00;99.90
11188;DHT22;5650;52.700;7.306;2024-01-15T14:43:50;2.90;99.90
11188;DHT22;5650;52.700;7.306;2024-01-15T14:46:17;2.90;99.90
11188;DHT22;5650;52.700;7.306;2024-01-15T14:48:46;2.80;99.90
11188;DHT22;5650;52.700;7.306;2024-01-15T14:51:13;2.70;99.90
11188;DHT22;5650;52.700;7.306;2024-01-15T14:53:40;2.70;99.90
11188;DHT22;5650;52.700;7.306;2024-01-15T14:56:09;2.70;99.90
11188;DHT22;5650;52.700;7.306;2024-01-15T14:58:36;2.80;99.90
11188;DHT22;5650;52.700;7.306;2024-01-15T15:01:03;2.80;99.90
11188;DHT22;5650;52.700;7.306;2024-01-15T15:03:31;2.80;99.90
11188;DHT22;5650;52.700;7.306;2024-01-15T15:05:59;2.80;99.90
11188;DHT22;5650;52.700;7.306;2024-01-15T15:08:27;2.90;99.90
11188;DHT22;5650;52.700;7.306;2024-01-15T15:10:54;2.90;99.90
11188;DHT22;5650;52.700;7.306;2024-01-15T15:13:22;2.90;99.90
11188;DHT22;5650;52.700;7.306;2024-01-15T15:15:54;2.70;99.90
11188;DHT22;5650;52.700;7.306;2024-01-15T15:18:21;2.60;99.90
11188;DHT22;5650;52.700;7.306;2024-01-15T15:20:51;2.50;99.90
11188;DHT22;5650;52.700;7.306;2024-01-15T15:23:20;2.40;99.90
11188;DHT22;5650;52.700;7.306;2024-01-15T15:25:47;2.30;99.90
11188;DHT22;5650;52.700;7.306;2024-01-15T15:28:17;2.30;99.90
11188;DHT22;5650;52.700;7.306;2024-01-15T15:30:47;2.20;99.90
11188;DHT22;5650;52.700;7.306;2024-01-15T15:33:17;2.20;99.90
11188;DHT22;5650;52.700;7.306;2024-01-15T15:35:48;2.20;99.90
11188;DHT22;5650;52.700;7.306;2024-01-15T15:38:16;2.20;99.90
11188;DHT22;5650;52.700;7.306;2024-01-15T15:40:45;2.30;99.90
11188;DHT22;5650;52.700;7.306;2024-01-15T15:43:12;2.30;99.90
11188;DHT22;5650;52.700;7.306;2024-01-15T15:45:40;2.30;99.90
11188;DHT22;5650;52.700;7.306;2024-01-15T15:48:07;2.30;99.90
11188;DHT22;5650;52.700;7.306;2024-01-15T15:50:34;2.30;99.90
11188;DHT22;5650;52.700;7.306;2024-01-15T15:53:01;2.40;99.90
11188;DHT22;5650;52.700;7.306;2024-01-15T15:55:29;2.80;99.90
11188;DHT22;5650;52.700;7.306;2024-01-15T15:58:00;3.00;99.90
11188;DHT22;5650;52.700;7.306;2024-01-15T16:00:32;3.10;99.90
11188;DHT22;5650;52.700;7.306;2024-01-15T16:02:59;3.30;99.90
11188;DHT22;5650;52.700;7.306;2024-01-15T16:05:29;3.40;99.90
11188;DHT22;5650;52.700;7.306;2024-01-15T16:07:59;3.40;99.90
11188;DHT22;5650;52.700;7.306;2024-01-15T16:10:26;3.50;99.90
11188;DHT22;5650;52.700;7.306;2024-01-15T16:12:53;3.50;99.90
11188;DHT22;5650;52.700;7.306;2024-01-15T16:15:22;3.50;99.90
11188;DHT22;5650;52.700;7.306;2024-01-15T16:17:53;3.50;99.90
11188;DHT22;5650;52.700;7.306;2024-01-15T16:20:23;3.50;99.90